Time;durP1;ratioP1;P1;durP2;ratioP2;P2;SDS_P1;SDS_P2;PMS_P1;PMS_P2;Temp;Humidity;BMP_temperature;BMP_pressure;BME280_temperature;BME280_humidity;BME280_pressure;Samples;Min_cycle;Max_cycle;Signal;HPM_P1;HPM_P2
2024/04/08 00:01:56;;;;;;;;;;;14.20;99.90;;;;;;21153828;28;19977;-77
2024/04/08 00:11:57;;;;;;;;;;;14.20;99.90;;;;;;21159428;28;19915;-77
2024/04/08 00:21:57;;;;;;;;;;;14.20;99.90;;;;;;21158604;28;20289;-77
2024/04/08 00:31:58;;;;;;;;;;;13.80;99.90;;;;;;21158435;28;19916;-77
2024/04/08 00:42:00;;;;;;;;;;;13.90;99.90;;;;;;21160746;28;19916;-77
2024/04/08 00:52:00;;;;;;;;;;;13.90;99.90;;;;;;21161316;28;19916;-77
2024/04/08 01:02:01;;;;;;;;;;;14.10;99.90;;;;;;21160566;28;19919;-77
2024/04/08 01:12:02;;;;;;;;;;;13.80;99.90;;;;;;21157993;28;19916;-77
2024/04/08 01:22:03;;;;;;;;;;;13.90;99.90;;;;;;21158825;28;19923;-77
2024/04/08 01:32:04;;;;;;;;;;;14.30;99.90;;;;;;21171534;28;19916;-77
2024/04/08 01:42:04;;;;;;;;;;;14.30;99.90;;;;;;21174228;28;19920;-77
2024/04/08 01:52:06;;;;;;;;;;;14.30;99.90;;;;;;21174345;28;19950;-77
2024/04/08 02:02:06;;;;;;;;;;;14.10;99.90;;;;;;21172228;28;19912;-77
2024/04/08 02:12:07;;;;;;;;;;;13.20;99.90;;;;;;21168544;28;20400;-77
2024/04/08 02:22:08;;;;;;;;;;;13.00;99.90;;;;;;21167987;28;20013;-77
2024/04/08 02:33:46;;;;;;;;;;;12.90;99.90;;;;;;23085146;25;19933;-77
2024/04/08 02:43:46;;;;;;;;;;;12.50;99.90;;;;;;22946387;25;20389;-77
2024/04/08 02:53:47;;;;;;;;;;;12.60;99.90;;;;;;22945976;25;20255;-77
2024/04/08 03:03:48;;;;;;;;;;;12.10;99.90;;;;;;22942628;25;19995;-78
2024/04/08 03:13:48;;;;;;;;;;;12.10;99.90;;;;;;22930086;25;19995;-77
2024/04/08 03:23:49;;;;;;;;;;;12.20;99.90;;;;;;22943040;25;19967;-77
2024/04/08 03:33:50;;;;;;;;;;;12.00;99.90;;;;;;22943683;25;19934;-78
2024/04/08 03:43:51;;;;;;;;;;;11.80;99.90;;;;;;22881898;25;19927;-77
2024/04/08 03:53:51;;;;;;;;;;;11.80;99.90;;;;;;22874578;25;20255;-78
2024/04/08 04:03:52;;;;;;;;;;;11.80;99.90;;;;;;22854699;25;19927;-77
2024/04/08 04:13:52;;;;;;;;;;;11.30;99.90;;;;;;22846049;25;19960;-77
2024/04/08 04:23:53;;;;;;;;;;;11.30;99.90;;;;;;22858889;25;19928;-77
2024/04/08 04:33:54;;;;;;;;;;;11.10;99.90;;;;;;22873123;25;19928;-77
2024/04/08 04:43:54;;;;;;;;;;;10.90;99.90;;;;;;22885982;25;19999;-78
2024/04/08 04:53:55;;;;;;;;;;;10.80;99.90;;;;;;22876039;25;20597;-78
2024/04/08 05:03:56;;;;;;;;;;;10.80;99.90;;;;;;22875131;25;19940;-78
2024/04/08 05:13:57;;;;;;;;;;;10.40;99.90;;;;;;22840865;25;19927;-78
2024/04/08 05:23:58;;;;;;;;;;;10.30;99.90;;;;;;22834819;25;20266;-77
2024/04/08 05:33:59;;;;;;;;;;;10.50;99.90;;;;;;22737673;25;20020;-76
2024/04/08 05:44:00;;;;;;;;;;;10.90;99.90;;;;;;22767044;25;19937;-77
2024/04/08 05:54:00;;;;;;;;;;;11.40;99.90;;;;;;22789658;25;20358;-77
2024/04/08 06:04:03;;;;;;;;;;;11.70;99.90;;;;;;22782741;25;19927;-78
2024/04/08 06:14:03;;;;;;;;;;;11.90;99.90;;;;;;22790917;25;19932;-77
2024/04/08 06:24:04;;;;;;;;;;;12.10;99.90;;;;;;22796690;25;19940;-77
2024/04/08 06:34:05;;;;;;;;;;;12.60;99.90;;;;;;22839311;25;19928;-76
2024/04/08 06:44:06;;;;;;;;;;;12.90;99.90;;;;;;22814588;26;19932;-77
2024/04/08 06:54:06;;;;;;;;;;;13.20;99.90;;;;;;22794747;25;20007;-77
2024/04/08 07:04:07;;;;;;;;;;;13.40;99.90;;;;;;22805258;25;20360;-77
2024/04/08 07:14:08;;;;;;;;;;;13.80;99.90;;;;;;22813361;25;19928;-77
2024/04/08 07:24:09;;;;;;;;;;;14.30;99.90;;;;;;22834806;25;20308;-76
2024/04/08 07:34:10;;;;;;;;;;;14.80;99.90;;;;;;22814190;25;19927;-77
2024/04/08 07:44:11;;;;;;;;;;;15.30;99.90;;;;;;22829967;25;19943;-77
2024/04/08 07:54:11;;;;;;;;;;;15.70;99.90;;;;;;22823194;25;19980;-78
2024/04/08 08:04:12;;;;;;;;;;;16.40;99.90;;;;;;22808163;25;19932;-78
2024/04/08 08:14:13;;;;;;;;;;;16.70;99.90;;;;;;22820280;25;20239;-78
2024/04/08 08:24:13;;;;;;;;;;;16.90;99.90;;;;;;22825862;25;20423;-76
2024/04/08 08:34:14;;;;;;;;;;;17.50;99.90;;;;;;22830398;25;19953;-77
2024/04/08 08:44:16;;;;;;;;;;;17.80;99.90;;;;;;22827777;25;19936;-78
2024/04/08 08:54:17;;;;;;;;;;;18.70;99.90;;;;;;22809632;25;19933;-78
2024/04/08 09:04:17;;;;;;;;;;;19.10;99.90;;;;;;22835475;26;19927;-78
2024/04/08 09:14:18;;;;;;;;;;;19.80;99.90;;;;;;22831101;25;19955;-78
2024/04/08 09:24:19;;;;;;;;;;;19.90;99.90;;;;;;22800661;25;20020;-78
2024/04/08 09:34:20;;;;;;;;;;;20.60;99.90;;;;;;22836123;25;19934;-78
2024/04/08 09:44:21;;;;;;;;;;;20.40;99.90;;;;;;22817263;25;19934;-78
2024/04/08 09:54:22;;;;;;;;;;;20.90;99.90;;;;;;22820432;25;19936;-79
2024/04/08 10:04:24;;;;;;;;;;;21.90;99.90;;;;;;22791184;25;20343;-79
2024/04/08 10:14:25;;;;;;;;;;;22.50;99.90;;;;;;22822129;25;19950;-79
2024/04/08 10:24:29;;;;;;;;;;;23.10;99.90;;;;;;22834293;25;19933;-79
2024/04/08 10:34:30;;;;;;;;;;;24.20;99.90;;;;;;22829582;25;19935;-78
2024/04/08 10:44:31;;;;;;;;;;;24.10;99.90;;;;;;22835742;25;19991;-77
2024/04/08 10:54:32;;;;;;;;;;;22.70;99.90;;;;;;22817493;25;19936;-78
2024/04/08 11:04:33;;;;;;;;;;;21.90;99.90;;;;;;22823328;25;19991;-77
2024/04/08 11:14:34;;;;;;;;;;;21.50;99.90;;;;;;22835124;26;20394;-78
2024/04/08 11:24:39;;;;;;;;;;;21.40;99.90;;;;;;22755762;25;19928;-78
2024/04/08 11:34:40;;;;;;;;;;;21.80;99.90;;;;;;22823987;25;19938;-79
2024/04/08 11:44:44;;;;;;;;;;;22.20;99.90;;;;;;22813688;26;19936;-78
2024/04/08 11:54:45;;;;;;;;;;;22.40;99.90;;;;;;22806149;25;19936;-78
2024/04/08 12:04:46;;;;;;;;;;;22.90;99.90;;;;;;22793028;25;20300;-79
2024/04/08 12:14:47;;;;;;;;;;;24.10;99.90;;;;;;22826921;25;19928;-78
2024/04/08 12:24:48;;;;;;;;;;;24.90;99.90;;;;;;22762518;25;19935;-78
2024/04/08 12:34:51;;;;;;;;;;;25.30;99.90;;;;;;22792837;26;19928;-77
2024/04/08 12:44:52;;;;;;;;;;;26.40;99.90;;;;;;22773625;25;19927;-78
2024/04/08 12:54:53;;;;;;;;;;;27.00;99.90;;;;;;22818674;25;20258;-79
2024/04/08 13:04:53;;;;;;;;;;;27.00;99.90;;;;;;22826599;25;19936;-78
2024/04/08 13:14:54;;;;;;;;;;;27.30;99.90;;;;;;22783604;25;19995;-78
2024/04/08 13:24:55;;;;;;;;;;;27.00;99.90;;;;;;22759185;25;19934;-78
2024/04/08 13:34:55;;;;;;;;;;;26.80;99.90;;;;;;22769081;25;19939;-79
2024/04/08 13:44:56;;;;;;;;;;;26.60;99.90;;;;;;22799977;25;19933;-79
2024/04/08 13:54:57;;;;;;;;;;;27.10;97.80;;;;;;22830361;25;19931;-78
2024/04/08 14:04:57;;;;;;;;;;;26.40;98.40;;;;;;22777516;25;19934;-78
2024/04/08 14:14:58;;;;;;;;;;;26.20;99.50;;;;;;22808346;25;19927;-77
2024/04/08 14:24:59;;;;;;;;;;;26.40;99.90;;;;;;22869314;25;19936;-78
2024/04/08 14:34:59;;;;;;;;;;;26.60;97.70;;;;;;22882574;25;19927;-79
2024/04/08 14:45:00;;;;;;;;;;;26.20;99.90;;;;;;22855187;25;19996;-78
2024/04/08 14:55:00;;;;;;;;;;;26.50;99.90;;;;;;22761644;25;19935;-80
2024/04/08 15:05:01;;;;;;;;;;;26.00;99.90;;;;;;22872011;25;19936;-76
2024/04/08 15:15:03;;;;;;;;;;;26.20;99.90;;;;;;22811582;25;19940;-76
2024/04/08 15:25:04;;;;;;;;;;;27.30;96.80;;;;;;22822990;25;19934;-77
2024/04/08 15:35:05;;;;;;;;;;;27.30;97.60;;;;;;22877828;25;19935;-79
2024/04/08 15:45:06;;;;;;;;;;;26.60;98.00;;;;;;22891377;25;19935;-79
2024/04/08 15:55:07;;;;;;;;;;;26.30;98.90;;;;;;22883830;25;19980;-79
2024/04/08 16:05:08;;;;;;;;;;;25.90;99.40;;;;;;22848284;25;19928;-77
2024/04/08 16:15:08;;;;;;;;;;;25.80;99.90;;;;;;22872317;25;19940;-76
2024/04/08 16:25:09;;;;;;;;;;;25.50;99.20;;;;;;22849081;25;19935;-77
2024/04/08 16:35:10;;;;;;;;;;;25.00;98.80;;;;;;22844469;25;19935;-77
2024/04/08 16:45:11;;;;;;;;;;;24.40;99.90;;;;;;22823117;26;19978;-77
2024/04/08 16:55:11;;;;;;;;;;;24.00;99.90;;;;;;22842002;25;19942;-77
2024/04/08 17:05:12;;;;;;;;;;;24.10;99.90;;;;;;22862799;25;19959;-76
2024/04/08 17:15:13;;;;;;;;;;;23.50;99.90;;;;;;22864350;25;19991;-76
2024/04/08 17:25:14;;;;;;;;;;;23.10;99.90;;;;;;22856890;25;19927;-77
2024/04/08 17:35:15;;;;;;;;;;;22.70;99.90;;;;;;22830588;25;19934;-76
2024/04/08 17:45:16;;;;;;;;;;;22.40;99.90;;;;;;22829619;25;19935;-77
2024/04/08 17:55:17;;;;;;;;;;;22.40;99.90;;;;;;22858881;25;19927;-77
2024/04/08 18:05:17;;;;;;;;;;;22.40;99.90;;;;;;22867295;25;19927;-76
2024/04/08 18:15:18;;;;;;;;;;;22.20;99.90;;;;;;22873454;25;19927;-78
2024/04/08 18:25:19;;;;;;;;;;;22.00;99.90;;;;;;22801436;25;20295;-78
2024/04/08 18:35:19;;;;;;;;;;;21.30;99.90;;;;;;22812661;25;19934;-77
2024/04/08 18:45:20;;;;;;;;;;;21.10;99.90;;;;;;22867785;25;19928;-79
2024/04/08 18:55:21;;;;;;;;;;;20.80;99.90;;;;;;22872419;25;20360;-78
2024/04/08 19:05:22;;;;;;;;;;;21.20;99.90;;;;;;22880594;25;20378;-77
2024/04/08 19:15:23;;;;;;;;;;;20.80;99.90;;;;;;22891437;25;19935;-80
2024/04/08 19:25:23;;;;;;;;;;;20.60;99.90;;;;;;22881622;25;20164;-78
2024/04/08 19:35:25;;;;;;;;;;;20.50;99.90;;;;;;22903086;25;19934;-76
2024/04/08 19:45:26;;;;;;;;;;;20.00;99.90;;;;;;22897982;25;19932;-78
2024/04/08 19:55:27;;;;;;;;;;;20.40;99.90;;;;;;22887371;25;19932;-79
2024/04/08 20:05:27;;;;;;;;;;;20.30;99.90;;;;;;22899760;25;19927;-79
2024/04/08 20:15:28;;;;;;;;;;;20.10;99.90;;;;;;22841910;25;19939;-77
2024/04/08 20:25:29;;;;;;;;;;;20.00;99.90;;;;;;22715830;25;20383;-77
2024/04/08 20:35:29;;;;;;;;;;;20.10;99.90;;;;;;22881994;25;19934;-78
2024/04/08 20:45:33;;;;;;;;;;;20.20;99.90;;;;;;22841259;25;19955;-79
2024/04/08 20:55:33;;;;;;;;;;;20.20;99.90;;;;;;22873880;25;19927;-79
2024/04/08 21:05:34;;;;;;;;;;;19.90;99.90;;;;;;22861196;25;19939;-77
2024/04/08 21:15:36;;;;;;;;;;;20.00;99.90;;;;;;22776721;25;19935;-79
2024/04/08 21:25:37;;;;;;;;;;;19.40;99.90;;;;;;22845755;25;19935;-77
2024/04/08 21:35:38;;;;;;;;;;;19.20;99.90;;;;;;22929035;25;19927;-76
2024/04/08 21:45:39;;;;;;;;;;;19.40;99.90;;;;;;22919696;25;19934;-79
2024/04/08 21:55:53;;;;;;;;;;;19.40;99.90;;;;;;22860371;25;19928;-79
2024/04/08 22:05:53;;;;;;;;;;;18.80;99.90;;;;;;22854449;25;19938;-79
2024/04/08 22:15:54;;;;;;;;;;;18.90;99.90;;;;;;22886485;25;19927;-78
2024/04/08 22:25:55;;;;;;;;;;;19.00;99.90;;;;;;22858110;25;20264;-78
2024/04/08 22:35:55;;;;;;;;;;;18.90;99.90;;;;;;22886483;25;19939;-78
2024/04/08 22:45:56;;;;;;;;;;;18.90;99.90;;;;;;22892514;25;20430;-78
2024/04/08 22:55:56;;;;;;;;;;;18.50;99.90;;;;;;22877706;25;19960;-78
2024/04/08 23:05:57;;;;;;;;;;;18.40;99.90;;;;;;22879969;25;20271;-77
2024/04/08 23:15:58;;;;;;;;;;;18.30;99.90;;;;;;22835833;25;19932;-78
2024/04/08 23:25:58;;;;;;;;;;;18.10;99.90;;;;;;22887320;25;19935;-78
2024/04/08 23:35:59;;;;;;;;;;;17.70;99.90;;;;;;22854776;25;20373;-78
2024/04/08 23:46:01;;;;;;;;;;;17.80;99.90;;;;;;22900401;25;19950;-78
2024/04/08 23:56:01;;;;;;;;;;;17.70;99.90;;;;;;22897858;25;20363;-77
